El Redomon, Argentina
Current Conditions -  °F | °C
As of 6:00 AM on Friday 19 Dec 2014 (Local Time) from SUSO Reporting Station
Clear Clear  
Wind Chill: 18°   Ceiling: Unl
Heat Index: 18°   Visibility: 6mi
Dew Point: 14°   Wind: 0mph
Humidity: 77%   Direction: NA
Pressure: 29.77"   Gusts: NA
Location:  31.14°S, 58.23°W
Report Text: SUSO 190900Z 00000KT CAVOK 18/14 Q1008
Loading
Personal Weather Stations






























Interactive Weather Map New forecast layout! Learn more

10-Day Weather Forecast

Advertisements
Track Severe Weather on mobile